Time;durP1;ratioP1;P1;durP2;ratioP2;P2;SDS_P1;SDS_P2;PMS_P1;PMS_P2;Temp;Humidity;BMP_temperature;BMP_pressure;BME280_temperature;BME280_humidity;BME280_pressure;Samples;Min_cycle;Max_cycle;Signal;HPM_P1;HPM_P2
2023/12/02 00:02:17;;;;;;;1999.90;999.90;;;;;;;;;;5059065;28;20060;-83
2023/12/02 00:04:44;;;;;;;1999.90;999.90;;;;;;;;;;5051735;28;20425;-83
2023/12/02 00:07:10;;;;;;;1999.90;999.90;;;;;;;;;;5057000;28;20053;-83
2023/12/02 00:09:37;;;;;;;1999.90;999.90;;;;;;;;;;5063222;28;20076;-84
2023/12/02 00:12:04;;;;;;;1999.90;999.90;;;;;;;;;;5059373;28;20410;-85
2023/12/02 00:14:31;;;;;;;1999.90;999.90;;;;;;;;;;5054474;28;20052;-83
2023/12/02 00:16:57;;;;;;;1999.90;999.90;;;;;;;;;;5052251;28;20049;-83
2023/12/02 00:19:25;;;;;;;1999.90;999.90;;;;;;;;;;5056479;28;20047;-83
2023/12/02 00:21:52;;;;;;;1999.90;999.90;;;;;;;;;;5056327;28;20048;-83
2023/12/02 00:24:18;;;;;;;1999.90;999.90;;;;;;;;;;5055639;28;20059;-84
2023/12/02 00:26:45;;;;;;;1999.90;999.90;;;;;;;;;;5055417;28;20045;-85
2023/12/02 00:29:11;;;;;;;1999.90;999.90;;;;;;;;;;5055131;28;20060;-83
2023/12/02 00:31:38;;;;;;;1999.90;999.90;;;;;;;;;;5056475;28;20037;-83
2023/12/02 00:34:04;;;;;;;1999.90;999.90;;;;;;;;;;5055459;28;20044;-83
2023/12/02 00:36:33;;;;;;;1999.90;999.90;;;;;;;;;;5061275;28;20061;-83
2023/12/02 00:39:00;;;;;;;1999.90;999.90;;;;;;;;;;5052456;28;20107;-83
2023/12/02 00:41:27;;;;;;;1999.90;999.90;;;;;;;;;;5051611;28;20055;-83
2023/12/02 00:43:53;;;;;;;1999.90;999.90;;;;;;;;;;5053532;28;20048;-83
2023/12/02 00:46:20;;;;;;;1999.90;999.90;;;;;;;;;;5051878;28;20072;-83
2023/12/02 00:48:46;;;;;;;1999.90;999.90;;;;;;;;;;5050337;28;20055;-83
2023/12/02 00:51:13;;;;;;;1999.90;999.90;;;;;;;;;;5052730;28;20053;-83
2023/12/02 00:53:40;;;;;;;1999.90;999.90;;;;;;;;;;5051549;28;20481;-83
2023/12/02 00:56:08;;;;;;;1999.90;999.90;;;;;;;;;;5054393;28;20395;-84
2023/12/02 00:58:34;;;;;;;1999.90;999.90;;;;;;;;;;5052510;28;20045;-83
2023/12/02 01:01:01;;;;;;;1999.90;999.90;;;;;;;;;;5047610;28;20052;-84
2023/12/02 01:03:27;;;;;;;1999.90;999.90;;;;;;;;;;5053463;28;20045;-83
2023/12/02 01:05:54;;;;;;;1999.90;999.90;;;;;;;;;;5051984;28;20052;-83
2023/12/02 01:08:20;;;;;;;1999.90;999.90;;;;;;;;;;5057296;28;20503;-83
2023/12/02 01:10:48;;;;;;;1999.90;999.90;;;;;;;;;;5050397;28;20036;-83
2023/12/02 01:13:15;;;;;;;1999.90;999.90;;;;;;;;;;5046443;28;20044;-83
2023/12/02 01:15:41;;;;;;;1999.90;999.90;;;;;;;;;;5054815;28;20049;-83
2023/12/02 01:18:08;;;;;;;1999.90;999.90;;;;;;;;;;5047134;28;20045;-83
2023/12/02 01:20:34;;;;;;;1999.90;999.90;;;;;;;;;;5049599;28;20047;-83
2023/12/02 01:23:01;;;;;;;1999.90;999.90;;;;;;;;;;5052745;28;20056;-84
2023/12/02 01:25:28;;;;;;;1999.90;999.90;;;;;;;;;;5054856;28;20048;-82
2023/12/02 01:27:56;;;;;;;1999.90;999.90;;;;;;;;;;5055513;28;20041;-83
2023/12/02 01:30:22;;;;;;;1999.90;999.90;;;;;;;;;;5054017;28;20528;-82
2023/12/02 01:32:49;;;;;;;1999.90;999.90;;;;;;;;;;5051332;28;20048;-83
2023/12/02 01:35:15;;;;;;;1999.90;999.90;;;;;;;;;;5052787;28;20091;-83
2023/12/02 01:37:42;;;;;;;1999.90;999.90;;;;;;;;;;5057084;28;20055;-83
2023/12/02 01:40:11;;;;;;;1999.90;999.90;;;;;;;;;;5057969;28;20497;-82
2023/12/02 01:42:37;;;;;;;1999.90;999.90;;;;;;;;;;5053994;28;20429;-82
2023/12/02 01:45:06;;;;;;;1999.90;999.90;;;;;;;;;;5052162;28;20045;-82
2023/12/02 01:47:33;;;;;;;1999.90;999.90;;;;;;;;;;5052088;28;20056;-82
2023/12/02 01:50:00;;;;;;;1999.90;999.90;;;;;;;;;;5054736;28;20049;-82
2023/12/02 01:52:27;;;;;;;1999.90;999.90;;;;;;;;;;5051952;28;20048;-84
2023/12/02 01:54:54;;;;;;;1999.90;999.90;;;;;;;;;;5052392;28;20036;-83
2023/12/02 01:57:21;;;;;;;1999.90;999.90;;;;;;;;;;5053253;28;20052;-84
2023/12/02 01:59:53;;;;;;;1999.90;999.90;;;;;;;;;;5052492;28;20080;-83
2023/12/02 02:02:21;;;;;;;1999.90;999.90;;;;;;;;;;5050711;28;20055;-82
2023/12/02 02:04:49;;;;;;;1999.90;999.90;;;;;;;;;;5051545;28;20110;-82
2023/12/02 02:07:15;;;;;;;1999.90;999.90;;;;;;;;;;5052164;28;20399;-82
2023/12/02 02:09:46;;;;;;;1999.90;999.90;;;;;;;;;;5053127;28;20049;-81
2023/12/02 02:12:13;;;;;;;1999.90;999.90;;;;;;;;;;5050043;28;20419;-82
2023/12/02 02:14:39;;;;;;;1999.90;999.90;;;;;;;;;;5051028;28;20055;-81
2023/12/02 02:17:06;;;;;;;1999.90;999.90;;;;;;;;;;5052424;28;20056;-82
2023/12/02 02:19:34;;;;;;;1999.90;999.90;;;;;;;;;;5048701;28;20041;-82
2023/12/02 02:22:01;;;;;;;1999.90;999.90;;;;;;;;;;5053822;28;20298;-84
2023/12/02 02:24:28;;;;;;;1999.90;999.90;;;;;;;;;;5054063;28;20075;-82
2023/12/02 02:26:54;;;;;;;1999.90;999.90;;;;;;;;;;5055308;28;20044;-84
2023/12/02 02:29:21;;;;;;;1999.90;999.90;;;;;;;;;;5049314;28;20052;-83
2023/12/02 02:31:47;;;;;;;1999.90;999.90;;;;;;;;;;5052692;28;20044;-83
2023/12/02 02:34:14;;;;;;;1999.90;999.90;;;;;;;;;;5051942;28;21090;-83
2023/12/02 02:36:40;;;;;;;1999.90;999.90;;;;;;;;;;5058526;28;20047;-83
2023/12/02 02:39:09;;;;;;;1999.90;999.90;;;;;;;;;;5055776;28;20049;-83
2023/12/02 02:41:36;;;;;;;1999.90;999.90;;;;;;;;;;5053015;28;20733;-83
2023/12/02 02:44:02;;;;;;;1999.90;999.90;;;;;;;;;;5052661;28;20056;-83
2023/12/02 02:46:29;;;;;;;1999.90;999.90;;;;;;;;;;5054735;28;20041;-83
2023/12/02 02:48:55;;;;;;;1999.90;999.90;;;;;;;;;;5054039;28;20049;-82
2023/12/02 02:51:22;;;;;;;1999.90;999.90;;;;;;;;;;5056630;28;20059;-83
2023/12/02 02:53:48;;;;;;;1999.90;999.90;;;;;;;;;;5049388;28;20056;-83
2023/12/02 02:56:16;;;;;;;1999.90;999.90;;;;;;;;;;5054697;28;20048;-83
2023/12/02 02:58:45;;;;;;;1999.90;999.90;;;;;;;;;;5051657;28;20049;-83
2023/12/02 03:01:11;;;;;;;1999.90;999.90;;;;;;;;;;5049314;28;20044;-82
2023/12/02 03:03:39;;;;;;;1999.90;999.90;;;;;;;;;;5043334;28;20041;-83
2023/12/02 03:06:06;;;;;;;1999.90;999.90;;;;;;;;;;5060577;28;20053;-83
2023/12/02 03:08:33;;;;;;;1999.90;999.90;;;;;;;;;;5057447;28;20431;-83
2023/12/02 03:10:59;;;;;;;1999.90;999.90;;;;;;;;;;5054997;28;20498;-82
2023/12/02 03:13:27;;;;;;;1999.90;999.90;;;;;;;;;;5049415;28;20052;-82
2023/12/02 03:15:53;;;;;;;1999.90;999.90;;;;;;;;;;5049042;28;20049;-82
2023/12/02 03:18:20;;;;;;;1999.90;999.90;;;;;;;;;;5054538;28;20403;-84
2023/12/02 03:20:46;;;;;;;1999.90;999.90;;;;;;;;;;5059227;28;20048;-83
2023/12/02 03:23:13;;;;;;;1999.90;999.90;;;;;;;;;;5055004;28;20053;-82
2023/12/02 03:25:40;;;;;;;1999.90;999.90;;;;;;;;;;5050046;28;20053;-84
2023/12/02 03:28:06;;;;;;;1999.90;999.90;;;;;;;;;;5064711;28;20056;-83
2023/12/02 03:30:34;;;;;;;1999.90;999.90;;;;;;;;;;5062327;28;20041;-83
2023/12/02 03:33:01;;;;;;;1999.90;999.90;;;;;;;;;;5050423;28;20056;-83
2023/12/02 03:35:26;;;;;;;1999.90;999.90;;;;;;;;;;5053450;28;20045;-83
2023/12/02 03:37:53;;;;;;;1999.90;999.90;;;;;;;;;;5057185;28;20416;-83
2023/12/02 03:40:19;;;;;;;1999.90;999.90;;;;;;;;;;5055116;28;20045;-84
2023/12/02 03:42:46;;;;;;;1999.90;999.90;;;;;;;;;;5060396;28;20368;-83
2023/12/02 03:45:12;;;;;;;1999.90;999.90;;;;;;;;;;5045930;28;20056;-82
2023/12/02 03:47:40;;;;;;;1999.90;999.90;;;;;;;;;;5052240;28;20045;-83
2023/12/02 03:50:09;;;;;;;1999.90;999.90;;;;;;;;;;5055613;28;20059;-84
2023/12/02 03:52:35;;;;;;;1999.90;999.90;;;;;;;;;;5055456;28;20041;-83
2023/12/02 03:55:02;;;;;;;1999.90;999.90;;;;;;;;;;5055388;28;20041;-82
2023/12/02 03:57:29;;;;;;;1999.90;999.90;;;;;;;;;;5053797;28;20110;-83
2023/12/02 03:59:56;;;;;;;1999.90;999.90;;;;;;;;;;5059183;28;20083;-83
2023/12/02 04:02:22;;;;;;;1999.90;999.90;;;;;;;;;;5057407;28;20657;-83
2023/12/02 04:04:50;;;;;;;1999.90;999.90;;;;;;;;;;5053405;28;20044;-82
2023/12/02 04:07:17;;;;;;;1999.90;999.90;;;;;;;;;;5052604;28;20041;-84
2023/12/02 04:09:43;;;;;;;1999.90;999.90;;;;;;;;;;5052924;28;20048;-83
2023/12/02 04:12:10;;;;;;;1999.90;999.90;;;;;;;;;;5054563;28;20049;-83
2023/12/02 04:14:36;;;;;;;1999.90;999.90;;;;;;;;;;5052376;28;20065;-82
2023/12/02 04:17:03;;;;;;;1999.90;999.90;;;;;;;;;;5056091;28;20049;-83
2023/12/02 04:19:29;;;;;;;1999.90;999.90;;;;;;;;;;5050331;28;20057;-83
2023/12/02 04:21:57;;;;;;;1999.90;999.90;;;;;;;;;;5053158;28;20072;-83
2023/12/02 04:24:24;;;;;;;1999.90;999.90;;;;;;;;;;5057141;28;20037;-83
2023/12/02 04:26:51;;;;;;;1999.90;999.90;;;;;;;;;;5051605;28;20041;-83
2023/12/02 04:29:18;;;;;;;1999.90;999.90;;;;;;;;;;5053254;28;20408;-82
2023/12/02 04:31:44;;;;;;;1999.90;999.90;;;;;;;;;;5048000;28;20045;-82
2023/12/02 04:34:11;;;;;;;1999.90;999.90;;;;;;;;;;5053514;28;20485;-83
2023/12/02 04:36:37;;;;;;;1999.90;999.90;;;;;;;;;;5057290;28;20059;-83
2023/12/02 04:39:05;;;;;;;1999.90;999.90;;;;;;;;;;5058355;28;20056;-83
2023/12/02 04:41:32;;;;;;;1999.90;999.90;;;;;;;;;;5052616;28;20052;-83
2023/12/02 04:43:59;;;;;;;1999.90;999.90;;;;;;;;;;5056942;28;20447;-83
2023/12/02 04:46:25;;;;;;;1999.90;999.90;;;;;;;;;;5058126;28;20045;-83
2023/12/02 04:48:52;;;;;;;1999.90;999.90;;;;;;;;;;5057973;28;20044;-82
2023/12/02 04:51:18;;;;;;;1999.90;999.90;;;;;;;;;;5055883;28;20557;-83
2023/12/02 04:53:45;;;;;;;1999.90;999.90;;;;;;;;;;5052419;28;20044;-84
2023/12/02 04:56:13;;;;;;;1999.90;999.90;;;;;;;;;;5052452;28;20052;-82
2023/12/02 04:58:39;;;;;;;1999.90;999.90;;;;;;;;;;5055609;28;20436;-84
2023/12/02 05:01:06;;;;;;;1999.90;999.90;;;;;;;;;;5052733;28;20057;-83
2023/12/02 05:03:33;;;;;;;1999.90;999.90;;;;;;;;;;5043191;28;20049;-84
2023/12/02 05:06:00;;;;;;;1999.90;999.90;;;;;;;;;;5048748;28;20052;-83
2023/12/02 05:08:27;;;;;;;1999.90;999.90;;;;;;;;;;5053725;28;20055;-83
2023/12/02 05:10:54;;;;;;;1999.90;999.90;;;;;;;;;;5048708;28;20080;-83
2023/12/02 05:13:22;;;;;;;1999.90;999.90;;;;;;;;;;5050596;28;20057;-83
2023/12/02 05:15:48;;;;;;;1999.90;999.90;;;;;;;;;;5050391;28;20045;-83
2023/12/02 05:18:15;;;;;;;1999.90;999.90;;;;;;;;;;5058495;28;20058;-84
2023/12/02 05:20:42;;;;;;;1999.90;999.90;;;;;;;;;;5053841;28;20078;-84
2023/12/02 05:23:08;;;;;;;1999.90;999.90;;;;;;;;;;5048245;28;20197;-83
2023/12/02 05:25:35;;;;;;;1999.90;999.90;;;;;;;;;;5045870;28;20477;-86
2023/12/02 05:28:01;;;;;;;1999.90;999.90;;;;;;;;;;5053988;28;20058;-83
2023/12/02 05:30:29;;;;;;;1999.90;999.90;;;;;;;;;;5051598;28;20045;-83
2023/12/02 05:32:56;;;;;;;1999.90;999.90;;;;;;;;;;5047429;28;20051;-84
2023/12/02 05:35:22;;;;;;;1999.90;999.90;;;;;;;;;;5051898;28;20077;-83
2023/12/02 05:37:50;;;;;;;1999.90;999.90;;;;;;;;;;5052486;28;20443;-83
2023/12/02 05:40:21;;;;;;;1999.90;999.90;;;;;;;;;;5053774;28;20054;-84
2023/12/02 05:42:48;;;;;;;1999.90;999.90;;;;;;;;;;5058391;28;20425;-83
2023/12/02 05:45:15;;;;;;;1999.90;999.90;;;;;;;;;;5049923;28;20071;-82
2023/12/02 05:47:43;;;;;;;1999.90;999.90;;;;;;;;;;5052983;28;20281;-83
2023/12/02 05:50:09;;;;;;;1999.90;999.90;;;;;;;;;;5052850;28;20051;-83
2023/12/02 05:52:36;;;;;;;1999.90;999.90;;;;;;;;;;5054800;28;20401;-83
2023/12/02 05:55:03;;;;;;;1999.90;999.90;;;;;;;;;;5050756;28;20424;-83
2023/12/02 05:57:29;;;;;;;1999.90;999.90;;;;;;;;;;5049901;28;20075;-83
2023/12/02 05:59:56;;;;;;;1999.90;999.90;;;;;;;;;;5050582;28;20481;-83
2023/12/02 06:02:22;;;;;;;1999.90;999.90;;;;;;;;;;5054953;28;20040;-83
2023/12/02 06:04:51;;;;;;;1999.90;999.90;;;;;;;;;;5054535;28;20059;-83
2023/12/02 06:07:18;;;;;;;1999.90;999.90;;;;;;;;;;5052716;28;20052;-83
2023/12/02 06:09:44;;;;;;;1999.90;999.90;;;;;;;;;;5052141;28;20052;-85
2023/12/02 06:12:11;;;;;;;1999.90;999.90;;;;;;;;;;5052353;28;20409;-84
2023/12/02 06:14:38;;;;;;;1999.90;999.90;;;;;;;;;;5053984;28;20049;-84
2023/12/02 06:17:05;;;;;;;1999.90;999.90;;;;;;;;;;5050338;28;20140;-84
2023/12/02 06:19:32;;;;;;;1999.90;999.90;;;;;;;;;;5053712;28;20075;-84
2023/12/02 06:22:00;;;;;;;1999.90;999.90;;;;;;;;;;5050646;28;20053;-84
2023/12/02 06:24:26;;;;;;;1999.90;999.90;;;;;;;;;;5052912;28;20045;-86
2023/12/02 06:26:53;;;;;;;1999.90;999.90;;;;;;;;;;5048983;28;20055;-84
2023/12/02 06:29:20;;;;;;;1999.90;999.90;;;;;;;;;;5055324;28;20054;-84
2023/12/02 06:31:49;;;;;;;1999.90;999.90;;;;;;;;;;5055781;28;20037;-86
2023/12/02 06:34:15;;;;;;;1999.90;999.90;;;;;;;;;;5054467;28;20049;-85
2023/12/02 06:36:42;;;;;;;1999.90;999.90;;;;;;;;;;5056827;28;20041;-84
2023/12/02 06:39:12;;;;;;;1999.90;999.90;;;;;;;;;;5057232;28;20056;-85
2023/12/02 06:41:38;;;;;;;1999.90;999.90;;;;;;;;;;5053477;28;20139;-84
2023/12/02 06:44:05;;;;;;;1999.90;999.90;;;;;;;;;;5051994;28;20037;-85
2023/12/02 06:46:31;;;;;;;1999.90;999.90;;;;;;;;;;5053198;28;20064;-84
2023/12/02 06:48:58;;;;;;;1999.90;999.90;;;;;;;;;;5059330;28;20092;-84
2023/12/02 06:51:28;;;;;;;1999.90;999.90;;;;;;;;;;5055645;28;20541;-84
2023/12/02 06:53:54;;;;;;;1999.90;999.90;;;;;;;;;;5057081;28;20037;-86
2023/12/02 06:56:23;;;;;;;1999.90;999.90;;;;;;;;;;5056386;28;20048;-84
2023/12/02 06:58:51;;;;;;;1999.90;999.90;;;;;;;;;;5057780;28;20048;-84
2023/12/02 07:01:26;;;;;;;1999.90;999.90;;;;;;;;;;5063876;28;20056;-85
2023/12/02 07:03:52;;;;;;;1999.90;999.90;;;;;;;;;;5058008;28;20037;-85
2023/12/02 07:06:19;;;;;;;1999.90;999.90;;;;;;;;;;5058885;28;20045;-85
2023/12/02 07:08:46;;;;;;;1999.90;999.90;;;;;;;;;;5054033;28;20044;-84
2023/12/02 07:11:12;;;;;;;1999.90;999.90;;;;;;;;;;5052159;28;20080;-85
2023/12/02 07:13:40;;;;;;;1999.90;999.90;;;;;;;;;;5049309;28;20041;-84
2023/12/02 07:16:07;;;;;;;1999.90;999.90;;;;;;;;;;5049882;28;20167;-85
2023/12/02 07:18:34;;;;;;;1999.90;999.90;;;;;;;;;;5056826;28;20088;-85
2023/12/02 07:21:00;;;;;;;1999.90;999.90;;;;;;;;;;5056832;28;20061;-85
2023/12/02 07:23:28;;;;;;;1999.90;999.90;;;;;;;;;;5056305;28;20061;-84
2023/12/02 07:25:55;;;;;;;1999.90;999.90;;;;;;;;;;5054490;28;20072;-85
2023/12/02 07:28:21;;;;;;;1999.90;999.90;;;;;;;;;;5054467;28;20123;-85
2023/12/02 07:30:50;;;;;;;1999.90;999.90;;;;;;;;;;5059360;28;20445;-85
2023/12/02 07:33:16;;;;;;;1999.90;999.90;;;;;;;;;;5057956;28;20075;-85
2023/12/02 07:35:43;;;;;;;1999.90;999.90;;;;;;;;;;5059965;28;20067;-86
2023/12/02 07:38:09;;;;;;;1999.90;999.90;;;;;;;;;;5056602;28;20060;-84
2023/12/02 07:40:36;;;;;;;1999.90;999.90;;;;;;;;;;5059093;28;20413;-85
2023/12/02 07:43:03;;;;;;;1999.90;999.90;;;;;;;;;;5059243;28;20036;-86
2023/12/02 07:45:30;;;;;;;1999.90;999.90;;;;;;;;;;5052089;28;20051;-86
2023/12/02 07:47:58;;;;;;;1999.90;999.90;;;;;;;;;;5058232;28;20049;-85
2023/12/02 07:50:25;;;;;;;1999.90;999.90;;;;;;;;;;5060034;28;20052;-86
2023/12/02 07:52:52;;;;;;;1999.90;999.90;;;;;;;;;;5056591;28;20091;-85
2023/12/02 07:55:19;;;;;;;1999.90;999.90;;;;;;;;;;5058250;28;20044;-85
2023/12/02 07:57:45;;;;;;;1999.90;999.90;;;;;;;;;;5056917;28;20102;-86
2023/12/02 08:00:13;;;;;;;1999.90;999.90;;;;;;;;;;5058915;28;20049;-86
2023/12/02 08:02:39;;;;;;;1999.90;999.90;;;;;;;;;;5060170;28;20041;-85
2023/12/02 08:05:08;;;;;;;1999.90;999.90;;;;;;;;;;5061875;28;20048;-86
2023/12/02 08:07:34;;;;;;;1999.90;999.90;;;;;;;;;;5052313;28;20056;-85
2023/12/02 08:10:01;;;;;;;1999.90;999.90;;;;;;;;;;5060450;28;20127;-86
2023/12/02 08:12:28;;;;;;;1999.90;999.90;;;;;;;;;;5056363;28;20049;-86
2023/12/02 08:14:54;;;;;;;1999.90;999.90;;;;;;;;;;5059741;28;20055;-86
2023/12/02 08:17:21;;;;;;;1999.90;999.90;;;;;;;;;;5062511;28;20044;-85
2023/12/02 08:19:47;;;;;;;1999.90;999.90;;;;;;;;;;5054475;28;20061;-86
2023/12/02 08:22:19;;;;;;;1999.90;999.90;;;;;;;;;;5053344;28;20045;-86
2023/12/02 08:24:46;;;;;;;1999.90;999.90;;;;;;;;;;5055108;28;20044;-87
2023/12/02 08:27:12;;;;;;;1999.90;999.90;;;;;;;;;;5051592;28;20048;-86
2023/12/02 08:29:39;;;;;;;1999.90;999.90;;;;;;;;;;5055029;28;20049;-86
2023/12/02 08:32:06;;;;;;;1999.90;999.90;;;;;;;;;;5056162;28;20064;-86
2023/12/02 08:34:33;;;;;;;1999.90;999.90;;;;;;;;;;5061905;28;20439;-85
2023/12/02 08:36:59;;;;;;;1999.90;999.90;;;;;;;;;;5061202;28;20501;-86
2023/12/02 08:39:27;;;;;;;1999.90;999.90;;;;;;;;;;5063680;28;20473;-86
2023/12/02 08:41:54;;;;;;;1999.90;999.90;;;;;;;;;;5066630;28;20045;-85
2023/12/02 08:44:22;;;;;;;1999.90;999.90;;;;;;;;;;5051763;28;20137;-87
2023/12/02 08:46:49;;;;;;;1999.90;999.90;;;;;;;;;;5060266;28;20044;-86
2023/12/02 08:49:15;;;;;;;1999.90;999.90;;;;;;;;;;5058205;28;20132;-86
2023/12/02 08:51:42;;;;;;;1999.90;999.90;;;;;;;;;;5057829;28;20040;-85
2023/12/02 08:54:08;;;;;;;1999.90;999.90;;;;;;;;;;5051568;28;20041;-85
2023/12/02 08:56:37;;;;;;;1999.90;999.90;;;;;;;;;;5051709;28;20049;-84
2023/12/02 08:59:03;;;;;;;1999.90;999.90;;;;;;;;;;5057753;28;20052;-85
2023/12/02 09:01:31;;;;;;;1999.90;999.90;;;;;;;;;;5057880;28;20053;-86
2023/12/02 09:03:58;;;;;;;1999.90;999.90;;;;;;;;;;5055946;28;20053;-86
2023/12/02 09:06:24;;;;;;;1999.90;999.90;;;;;;;;;;5056060;28;20053;-85
2023/12/02 09:08:52;;;;;;;1999.90;999.90;;;;;;;;;;5055263;28;20047;-85
2023/12/02 09:11:18;;;;;;;1999.90;999.90;;;;;;;;;;5059426;28;20051;-85
2023/12/02 09:13:47;;;;;;;1999.90;999.90;;;;;;;;;;5060060;28;20088;-86
2023/12/02 09:16:19;;;;;;;1999.90;999.90;;;;;;;;;;5050980;28;20417;-85
2023/12/02 09:18:46;;;;;;;1999.90;999.90;;;;;;;;;;5047562;28;20456;-85
2023/12/02 09:21:42;;;;;;;1999.90;999.90;;;;;;;;;;5054439;28;20048;-88
2023/12/02 09:24:34;;;;;;;1999.90;999.90;;;;;;;;;;5049720;28;20060;-88
2023/12/02 09:27:03;;;;;;;1999.90;999.90;;;;;;;;;;5050171;28;20481;-85
2023/12/02 09:29:35;;;;;;;1999.90;999.90;;;;;;;;;;5056858;28;20048;-85
2023/12/02 09:32:20;;;;;;;1999.90;999.90;;;;;;;;;;5056944;28;20095;-87
2023/12/02 09:34:56;;;;;;;1999.90;999.90;;;;;;;;;;5050552;28;20508;-87
2023/12/02 09:37:45;;;;;;;1999.90;999.90;;;;;;;;;;5052231;28;20056;-86
2023/12/02 09:40:35;;;;;;;1999.90;999.90;;;;;;;;;;5055036;28;20481;-85
2023/12/02 09:43:21;;;;;;;1999.90;999.90;;;;;;;;;;5053509;28;20059;-87
2023/12/02 09:45:55;;;;;;;;;;;;;;;;;;5051978;28;20050;-85
2023/12/02 09:48:25;;;;;;;1999.90;999.90;;;;;;;;;;5055295;28;19926;-88
2023/12/02 09:51:01;;;;;;;1999.90;999.90;;;;;;;;;;5051753;28;20139;-87
2023/12/02 09:53:35;;;;;;;1999.90;999.90;;;;;;;;;;5055903;28;20505;-90
2023/12/02 09:56:06;;;;;;;1999.90;999.90;;;;;;;;;;5055787;28;20068;-86
2023/12/02 09:58:38;;;;;;;1999.90;999.90;;;;;;;;;;5046656;28;20045;-87
2023/12/02 10:01:11;;;;;;;1999.90;999.90;;;;;;;;;;5049997;28;20056;-87
2023/12/02 10:03:57;;;;;;;1999.90;999.90;;;;;;;;;;5053329;28;20367;-87
2023/12/02 10:06:28;;;;;;;1999.90;999.90;;;;;;;;;;5054053;28;20401;-87
2023/12/02 10:09:02;;;;;;;1999.90;999.90;;;;;;;;;;5047202;28;20045;-86
2023/12/02 10:11:39;;;;;;;1999.90;999.90;;;;;;;;;;5049752;28;20040;-87
2023/12/02 10:14:10;;;;;;;1999.90;999.90;;;;;;;;;;5051703;28;20057;-86
2023/12/02 10:16:39;;;;;;;1999.90;999.90;;;;;;;;;;5056474;28;20052;-88
2023/12/02 10:19:09;;;;;;;1999.90;999.90;;;;;;;;;;5048739;28;20063;-87
2023/12/02 10:21:38;;;;;;;1999.90;999.90;;;;;;;;;;5051235;28;20064;-88
2023/12/02 10:24:09;;;;;;;1999.90;999.90;;;;;;;;;;5054377;28;20056;-88
2023/12/02 10:26:42;;;;;;;1999.90;999.90;;;;;;;;;;5052017;28;20161;-86
2023/12/02 10:29:17;;;;;;;1999.90;999.90;;;;;;;;;;5049360;28;20045;-87
2023/12/02 10:31:53;;;;;;;1999.90;999.90;;;;;;;;;;5054819;28;20046;-85
2023/12/02 10:34:23;;;;;;;1999.90;999.90;;;;;;;;;;5056702;28;20049;-84
2023/12/02 10:36:52;;;;;;;1999.90;999.90;;;;;;;;;;5054873;28;20428;-87
2023/12/02 10:39:28;;;;;;;1999.90;999.90;;;;;;;;;;5048197;28;20049;-83
2023/12/02 10:42:00;;;;;;;1999.90;999.90;;;;;;;;;;5053619;28;20440;-83
2023/12/02 10:44:30;;;;;;;1999.90;999.90;;;;;;;;;;5049327;28;20045;-82
2023/12/02 10:46:59;;;;;;;1999.90;999.90;;;;;;;;;;5059757;28;20041;-84
2023/12/02 10:49:28;;;;;;;1999.90;999.90;;;;;;;;;;5059213;28;20060;-83
2023/12/02 10:51:55;;;;;;;1999.90;999.90;;;;;;;;;;5060535;28;20059;-83
2023/12/02 10:54:25;;;;;;;1999.90;999.90;;;;;;;;;;5059352;28;20049;-83
2023/12/02 10:56:53;;;;;;;1999.90;999.90;;;;;;;;;;5051284;28;20045;-83
2023/12/02 10:59:22;;;;;;;1999.90;999.90;;;;;;;;;;5050364;28;20044;-83
2023/12/02 11:01:54;;;;;;;1999.90;999.90;;;;;;;;;;5057510;28;20049;-82
2023/12/02 11:04:25;;;;;;;1999.90;999.90;;;;;;;;;;5053958;28;20045;-83
2023/12/02 11:06:55;;;;;;;1999.90;999.90;;;;;;;;;;5056404;28;20040;-83
2023/12/02 11:09:31;;;;;;;1999.90;999.90;;;;;;;;;;5052075;28;20053;-82
2023/12/02 11:12:03;;;;;;;1999.90;999.90;;;;;;;;;;5053098;28;20493;-83
2023/12/02 11:14:36;;;;;;;1999.90;999.90;;;;;;;;;;5059948;28;20386;-84
2023/12/02 11:17:07;;;;;;;1999.90;999.90;;;;;;;;;;5052065;28;20128;-83
2023/12/02 11:19:55;;;;;;;1999.90;999.90;;;;;;;;;;5051077;28;20481;-83
2023/12/02 11:22:32;;;;;;;1999.90;999.90;;;;;;;;;;5046249;28;20050;-83
2023/12/02 11:25:07;;;;;;;1999.90;999.90;;;;;;;;;;5052599;28;20045;-83
2023/12/02 11:27:50;;;;;;;1999.90;999.90;;;;;;;;;;5047764;28;20525;-83
2023/12/02 11:30:24;;;;;;;1999.90;999.90;;;;;;;;;;5049501;28;20072;-83
2023/12/02 11:32:58;;;;;;;1999.90;999.90;;;;;;;;;;5056245;28;20438;-84
2023/12/02 11:35:33;;;;;;;1999.90;999.90;;;;;;;;;;5052787;28;20052;-83
2023/12/02 11:38:07;;;;;;;1999.90;999.90;;;;;;;;;;5053478;28;20037;-83
2023/12/02 11:40:42;;;;;;;1999.90;999.90;;;;;;;;;;5052799;28;20445;-83
2023/12/02 11:43:12;;;;;;;1999.90;999.90;;;;;;;;;;5056873;28;20376;-83
2023/12/02 11:45:40;;;;;;;1999.90;999.90;;;;;;;;;;5053194;28;20055;-83
2023/12/02 11:48:13;;;;;;;1999.90;999.90;;;;;;;;;;5052624;28;20416;-84
2023/12/02 11:50:58;;;;;;;1999.90;999.90;;;;;;;;;;5050536;28;20477;-83
2023/12/02 11:53:38;;;;;;;1999.90;999.90;;;;;;;;;;5052649;28;20437;-83
2023/12/02 11:56:09;;;;;;;1999.90;999.90;;;;;;;;;;5058120;28;20549;-84
2023/12/02 11:58:44;;;;;;;1999.90;999.90;;;;;;;;;;5054200;28;20053;-83
2023/12/02 12:01:16;;;;;;;1999.90;999.90;;;;;;;;;;5054287;28;20082;-85
2023/12/02 12:03:46;;;;;;;1999.90;999.90;;;;;;;;;;5054325;28;20500;-83
2023/12/02 12:06:25;;;;;;;1999.90;999.90;;;;;;;;;;5053340;28;20493;-84
2023/12/02 12:09:03;;;;;;;1999.90;999.90;;;;;;;;;;5050597;28;20045;-83
2023/12/02 12:11:31;;;;;;;1999.90;999.90;;;;;;;;;;5052173;28;20072;-84
2023/12/02 12:13:59;;;;;;;1999.90;999.90;;;;;;;;;;5057148;28;20041;-84
2023/12/02 12:16:25;;;;;;;1999.90;999.90;;;;;;;;;;5058399;28;20485;-84
2023/12/02 12:18:52;;;;;;;1999.90;999.90;;;;;;;;;;5051755;28;20408;-84
2023/12/02 12:21:21;;;;;;;1999.90;999.90;;;;;;;;;;5053067;28;20397;-84
2023/12/02 12:23:48;;;;;;;1999.90;999.90;;;;;;;;;;5052959;28;20135;-85
2023/12/02 12:26:14;;;;;;;1999.90;999.90;;;;;;;;;;5057156;28;20049;-84
2023/12/02 12:28:41;;;;;;;1999.90;999.90;;;;;;;;;;5052969;28;20045;-85
2023/12/02 12:31:08;;;;;;;1999.90;999.90;;;;;;;;;;5053505;28;20481;-84
2023/12/02 12:33:37;;;;;;;1999.90;999.90;;;;;;;;;;5052465;28;20545;-84
2023/12/02 12:36:04;;;;;;;1999.90;999.90;;;;;;;;;;5052475;28;20372;-84
2023/12/02 12:38:32;;;;;;;1999.90;999.90;;;;;;;;;;5053019;28;20056;-84
2023/12/02 12:40:59;;;;;;;1999.90;999.90;;;;;;;;;;5051697;28;20053;-85
2023/12/02 12:43:25;;;;;;;1999.90;999.90;;;;;;;;;;5058466;28;20052;-84
2023/12/02 12:45:52;;;;;;;1999.90;999.90;;;;;;;;;;5053591;28;20052;-84
2023/12/02 12:48:25;;;;;;;1999.90;999.90;;;;;;;;;;5058536;28;20047;-87
2023/12/02 12:50:54;;;;;;;1999.90;999.90;;;;;;;;;;5058483;28;20057;-86
2023/12/02 12:53:27;;;;;;;1999.90;999.90;;;;;;;;;;5054103;28;20053;-84
2023/12/02 12:56:00;;;;;;;1999.90;999.90;;;;;;;;;;5060472;28;20045;-86
2023/12/02 12:58:27;;;;;;;1999.90;999.90;;;;;;;;;;5057198;28;20044;-85
2023/12/02 13:00:57;;;;;;;1999.90;999.90;;;;;;;;;;5056149;28;20041;-86
2023/12/02 13:03:46;;;;;;;1999.90;999.90;;;;;;;;;;5057134;28;20041;-85
2023/12/02 13:06:14;;;;;;;1999.90;999.90;;;;;;;;;;5052811;28;20544;-86
2023/12/02 13:08:49;;;;;;;1999.90;999.90;;;;;;;;;;5061593;28;20139;-85
2023/12/02 13:11:21;;;;;;;1999.90;999.90;;;;;;;;;;5051449;28;20059;-85
2023/12/02 13:13:53;;;;;;;1999.90;999.90;;;;;;;;;;5058437;28;20048;-85
2023/12/02 13:16:20;;;;;;;1999.90;999.90;;;;;;;;;;5055368;28;20053;-86
2023/12/02 13:18:46;;;;;;;1999.90;999.90;;;;;;;;;;5054709;28;20049;-85
2023/12/02 13:21:14;;;;;;;1999.90;999.90;;;;;;;;;;5051013;28;20051;-84
2023/12/02 13:23:41;;;;;;;1999.90;999.90;;;;;;;;;;5055138;28;20106;-84
2023/12/02 13:26:08;;;;;;;1999.90;999.90;;;;;;;;;;5059942;28;20041;-84
2023/12/02 13:28:37;;;;;;;1999.90;999.90;;;;;;;;;;5052779;28;20400;-84
2023/12/02 13:31:05;;;;;;;1999.90;999.90;;;;;;;;;;5050861;28;20076;-84
2023/12/02 13:33:38;;;;;;;1999.90;999.90;;;;;;;;;;5051861;28;20405;-84
2023/12/02 13:36:07;;;;;;;1999.90;999.90;;;;;;;;;;5051762;28;20362;-84
2023/12/02 13:38:35;;;;;;;1999.90;999.90;;;;;;;;;;5056264;28;20049;-84
2023/12/02 13:41:09;;;;;;;1999.90;999.90;;;;;;;;;;5041096;28;20106;-84
2023/12/02 13:43:45;;;;;;;1999.90;999.90;;;;;;;;;;5060579;28;20044;-84
2023/12/02 13:46:16;;;;;;;1999.90;999.90;;;;;;;;;;5053930;28;20501;-85
2023/12/02 13:48:51;;;;;;;1999.90;999.90;;;;;;;;;;5048674;28;20045;-84
2023/12/02 13:51:27;;;;;;;1999.90;999.90;;;;;;;;;;5047683;28;20060;-84